Time;durP1;ratioP1;P1;durP2;ratioP2;P2;SDS_P1;SDS_P2;PMS_P1;PMS_P2;Temp;Humidity;BMP_temperature;BMP_pressure;BME280_temperature;BME280_humidity;BME280_pressure;Samples;Min_cycle;Max_cycle;Signal;HPM_P1;HPM_P2
2022/09/16 00:02:02;;;;;;;12.88;5.15;;;25.70;1.00;;;;;;5031384;28;20025;-63
2022/09/16 00:04:27;;;;;;;8.35;4.10;;;25.60;1.00;;;;;;5032241;28;20033;-63
2022/09/16 00:06:53;;;;;;;14.88;4.38;;;25.60;1.00;;;;;;5032438;28;20344;-63
2022/09/16 00:09:18;;;;;;;15.35;4.75;;;25.60;1.00;;;;;;5031336;28;20387;-63
2022/09/16 00:11:44;;;;;;;9.80;4.05;;;25.60;1.00;;;;;;5030199;28;20032;-64
2022/09/16 00:14:10;;;;;;;8.18;4.22;;;25.60;1.00;;;;;;5036689;28;20079;-64
2022/09/16 00:16:35;;;;;;;11.98;5.65;;;25.60;1.00;;;;;;5032578;28;20505;-63
2022/09/16 00:19:02;;;;;;;10.55;4.80;;;25.60;1.00;;;;;;5038730;28;20056;-63
2022/09/16 00:21:29;;;;;;;8.98;4.78;;;25.60;1.00;;;;;;5032826;28;20451;-63
2022/09/16 00:23:55;;;;;;;12.77;5.18;;;25.60;1.00;;;;;;5031308;28;20484;-63
2022/09/16 00:26:21;;;;;;;12.02;5.07;;;25.50;1.00;;;;;;5032541;28;20017;-62
2022/09/16 00:28:48;;;;;;;11.48;4.50;;;25.40;1.00;;;;;;5029443;28;20153;-63
2022/09/16 00:31:14;;;;;;;12.45;4.45;;;25.50;1.00;;;;;;5032132;28;20371;-63
2022/09/16 00:33:40;;;;;;;9.77;4.40;;;25.50;1.00;;;;;;5035268;28;20040;-63
2022/09/16 00:36:10;;;;;;;12.93;5.68;;;25.50;1.00;;;;;;5032739;28;20030;-63
2022/09/16 00:38:36;;;;;;;11.55;4.78;;;25.40;1.00;;;;;;5035140;28;20021;-63
2022/09/16 00:41:02;;;;;;;9.70;5.72;;;25.40;1.00;;;;;;5032014;28;20535;-63
2022/09/16 00:43:28;;;;;;;9.88;5.10;;;25.40;1.00;;;;;;5033609;28;20042;-61
2022/09/16 00:46:03;;;;;;;10.05;4.63;;;25.40;1.00;;;;;;5035198;28;20093;-63
2022/09/16 00:48:31;;;;;;;9.40;4.60;;;25.40;1.00;;;;;;5031600;28;20080;-63
2022/09/16 00:51:02;;;;;;;12.23;5.10;;;25.40;1.00;;;;;;5032029;28;20029;-62
2022/09/16 00:53:31;;;;;;;10.80;5.65;;;25.30;1.00;;;;;;5031249;28;22474;-62
2022/09/16 00:55:59;;;;;;;13.23;5.32;;;25.30;1.00;;;;;;5031867;28;20079;-62
2022/09/16 00:58:31;;;;;;;11.68;4.97;;;25.30;1.00;;;;;;5030991;28;20439;-61
2022/09/16 01:00:56;;;;;;;10.45;4.53;;;25.30;1.00;;;;;;5030689;28;20036;-62
2022/09/16 01:03:24;;;;;;;12.23;5.05;;;25.30;1.00;;;;;;5029732;28;20109;-62
2022/09/16 01:05:49;;;;;;;10.43;5.13;;;25.30;1.00;;;;;;5032776;28;20034;-62
2022/09/16 01:08:15;;;;;;;11.43;5.43;;;25.30;1.00;;;;;;5032646;28;20150;-62
2022/09/16 01:10:41;;;;;;;9.80;5.05;;;25.30;1.00;;;;;;5031333;28;20029;-62
2022/09/16 01:13:11;;;;;;;11.65;5.60;;;25.30;1.00;;;;;;5031701;28;20105;-62
2022/09/16 01:15:47;;;;;;;11.05;5.22;;;25.30;1.00;;;;;;5030462;28;20521;-62
2022/09/16 01:18:31;;;;;;;12.20;6.07;;;25.30;1.00;;;;;;5030423;28;20124;-62
2022/09/16 01:21:27;;;;;;;11.75;4.68;;;25.30;1.00;;;;;;5034642;28;20061;-62
2022/09/16 01:24:00;;;;;;;11.68;5.13;;;25.20;1.00;;;;;;5033591;28;20452;-62
2022/09/16 01:26:39;;;;;;;11.88;4.28;;;25.20;1.00;;;;;;5030450;28;20376;-62
2022/09/16 01:29:19;;;;;;;9.20;5.43;;;25.10;1.00;;;;;;5033911;28;20167;-62
2022/09/16 01:31:54;;;;;;;10.20;4.05;;;25.20;1.00;;;;;;5030949;28;20025;-62
2022/09/16 01:35:01;;;;;;;10.55;5.53;;;25.20;1.00;;;;;;5029990;28;20446;-62
2022/09/16 01:38:04;;;;;;;11.93;5.15;;;25.10;1.00;;;;;;5018947;28;20448;-62
2022/09/16 01:40:32;;;;;;;12.30;4.88;;;25.10;1.00;;;;;;5032111;28;20105;-62
2022/09/16 01:43:24;;;;;;;8.18;3.95;;;25.10;1.00;;;;;;5020537;28;20034;-62
2022/09/16 01:46:01;;;;;;;13.70;5.55;;;25.10;1.00;;;;;;5033276;28;20383;-62
2022/09/16 01:48:43;;;;;;;11.40;4.57;;;25.00;1.00;;;;;;5025183;28;20033;-62
2022/09/16 01:51:42;;;;;;;11.27;4.95;;;25.00;1.00;;;;;;5029403;28;20037;-62
2022/09/16 01:54:10;;;;;;;12.68;5.50;;;25.00;1.00;;;;;;5034441;28;20074;-62
2022/09/16 01:56:54;;;;;;;9.13;4.55;;;24.90;1.00;;;;;;5042573;28;20090;-63
2022/09/16 01:59:22;;;;;;;;;;;24.90;1.00;;;;;;5034540;28;20485;-61
2022/09/16 02:01:55;;;;;;;8.27;4.63;;;24.90;1.00;;;;;;5034461;28;20204;-62
2022/09/16 02:04:26;;;;;;;9.10;4.65;;;24.90;1.00;;;;;;5036435;28;20116;-62
2022/09/16 02:06:54;;;;;;;12.38;4.50;;;24.90;1.00;;;;;;5045835;28;20018;-62
2022/09/16 02:09:25;;;;;;;9.88;4.85;;;24.90;1.00;;;;;;5034067;28;20034;-62
2022/09/16 02:11:56;;;;;;;11.55;4.70;;;24.90;1.00;;;;;;5034931;28;20021;-62
2022/09/16 02:14:25;;;;;;;10.15;4.55;;;24.90;1.00;;;;;;5033742;28;20049;-62
2022/09/16 02:17:00;;;;;;;12.35;5.03;;;24.90;1.00;;;;;;5035113;28;20033;-62
2022/09/16 02:19:29;;;;;;;;;;;24.80;1.00;;;;;;5034496;28;20927;-62
2022/09/16 02:21:59;;;;;;;8.48;4.85;;;24.80;1.00;;;;;;5034490;28;19920;-62
2022/09/16 02:24:27;;;;;;;9.55;4.90;;;24.70;1.00;;;;;;5036164;28;20096;-62
2022/09/16 02:27:01;;;;;;;7.80;4.30;;;24.80;1.00;;;;;;5038353;28;20028;-63
2022/09/16 02:29:39;;;;;;;;;;;24.80;1.00;;;;;;5033314;28;20487;-63
2022/09/16 02:32:07;;;;;;;8.05;4.53;;;24.70;1.00;;;;;;5034328;28;19913;-62
2022/09/16 02:34:46;;;;;;;14.10;4.80;;;24.70;1.00;;;;;;5033435;28;20092;-62
2022/09/16 02:37:29;;;;;;;11.82;5.47;;;24.70;1.00;;;;;;5034344;28;20021;-62
2022/09/16 02:40:01;;;;;;;11.57;4.53;;;24.70;1.00;;;;;;5039539;28;20086;-62
2022/09/16 02:42:27;;;;;;;12.00;5.70;;;24.70;1.00;;;;;;5035853;28;20025;-62
2022/09/16 02:44:54;;;;;;;13.10;7.60;;;24.70;1.00;;;;;;5033438;28;20096;-61
2022/09/16 02:47:29;;;;;;;18.50;8.40;;;24.70;1.00;;;;;;5034097;28;20029;-62
2022/09/16 02:49:56;;;;;;;12.25;7.13;;;24.60;1.00;;;;;;5033540;28;20034;-62
2022/09/16 02:52:35;;;;;;;11.38;6.55;;;24.60;1.00;;;;;;5033756;28;20022;-63
2022/09/16 02:55:10;;;;;;;13.40;6.07;;;24.60;1.00;;;;;;5033154;28;20036;-62
2022/09/16 02:57:37;;;;;;;12.55;5.78;;;24.60;1.00;;;;;;5034034;28;20388;-62
2022/09/16 03:00:04;;;;;;;12.85;6.22;;;24.60;1.00;;;;;;5039481;28;20021;-62
2022/09/16 03:02:32;;;;;;;15.10;7.20;;;24.60;1.00;;;;;;5038276;28;20087;-62
2022/09/16 03:04:59;;;;;;;15.95;7.40;;;24.60;1.00;;;;;;5037275;28;20032;-62
2022/09/16 03:07:25;;;;;;;14.57;7.20;;;24.60;1.00;;;;;;5040035;28;20039;-62
2022/09/16 03:09:51;;;;;;;11.75;7.15;;;24.60;1.00;;;;;;5032389;28;20026;-62
2022/09/16 03:12:40;;;;;;;10.70;6.40;;;24.60;1.00;;;;;;5033905;28;20160;-62
2022/09/16 03:15:12;;;;;;;12.52;6.30;;;24.60;1.00;;;;;;5038027;28;20056;-63
2022/09/16 03:17:58;;;;;;;16.60;7.40;;;24.60;1.00;;;;;;5039712;28;20518;-62
2022/09/16 03:20:28;;;;;;;11.02;6.80;;;24.50;1.00;;;;;;5030236;28;20033;-63
2022/09/16 03:23:17;;;;;;;17.77;6.85;;;24.50;1.00;;;;;;5033509;28;20034;-62
2022/09/16 03:26:17;;;;;;;10.88;6.95;;;24.50;1.00;;;;;;5024883;28;20150;-62
2022/09/16 03:28:50;;;;;;;13.93;6.97;;;24.50;1.00;;;;;;5033274;28;20407;-62
2022/09/16 03:31:29;;;;;;;13.35;7.40;;;24.50;1.00;;;;;;5032451;28;20022;-62
2022/09/16 03:34:30;;;;;;;20.85;7.65;;;24.50;1.00;;;;;;5033128;28;20036;-62
2022/09/16 03:37:01;;;;;;;13.50;7.43;;;24.50;1.00;;;;;;5028361;28;20034;-62
2022/09/16 03:39:27;;;;;;;15.40;8.07;;;24.40;1.00;;;;;;5030574;28;20026;-62
2022/09/16 03:41:54;;;;;;;14.50;7.28;;;24.40;1.00;;;;;;5028792;28;20068;-62
2022/09/16 03:44:20;;;;;;;15.13;6.40;;;24.40;1.00;;;;;;5031378;28;20128;-63
2022/09/16 03:46:46;;;;;;;16.42;6.80;;;24.40;1.00;;;;;;5032302;28;20104;-63
2022/09/16 03:49:12;;;;;;;15.40;6.28;;;24.30;1.00;;;;;;5032829;28;20075;-63
2022/09/16 03:51:38;;;;;;;14.70;6.05;;;24.30;1.00;;;;;;5044153;28;20475;-62
2022/09/16 03:54:03;;;;;;;11.82;6.25;;;24.40;1.00;;;;;;5032635;28;20033;-62
2022/09/16 03:56:29;;;;;;;11.68;6.82;;;24.40;1.00;;;;;;5038101;28;20124;-63
2022/09/16 03:58:55;;;;;;;14.05;6.20;;;24.40;1.00;;;;;;5032753;28;20061;-62
2022/09/16 04:01:21;;;;;;;11.15;5.78;;;24.30;1.00;;;;;;5034063;28;20438;-62
2022/09/16 04:03:47;;;;;;;10.93;6.78;;;24.30;1.00;;;;;;5032962;28;20036;-62
2022/09/16 04:06:12;;;;;;;12.05;5.82;;;24.20;1.00;;;;;;5038599;28;20483;-62
2022/09/16 04:08:38;;;;;;;15.05;6.50;;;24.20;1.00;;;;;;5042462;28;20117;-62
2022/09/16 04:11:05;;;;;;;10.18;5.60;;;24.20;1.00;;;;;;5031181;28;20037;-62
2022/09/16 04:13:34;;;;;;;12.25;6.82;;;24.20;1.00;;;;;;5023649;28;20104;-62
2022/09/16 04:16:02;;;;;;;16.17;7.07;;;24.10;1.00;;;;;;5036476;28;20407;-62
2022/09/16 04:18:30;;;;;;;12.35;6.88;;;24.10;1.00;;;;;;5032325;28;20089;-62
2022/09/16 04:20:57;;;;;;;11.75;7.35;;;24.00;1.00;;;;;;5031741;28;20383;-63
2022/09/16 04:23:24;;;;;;;12.90;9.05;;;24.00;1.00;;;;;;5032166;28;20037;-62
2022/09/16 04:25:58;;;;;;;14.32;8.15;;;23.90;1.00;;;;;;5031594;28;20025;-62
2022/09/16 04:28:24;;;;;;;14.35;9.05;;;23.90;1.00;;;;;;5031936;28;20025;-62
2022/09/16 04:30:50;;;;;;;18.38;8.90;;;23.90;1.00;;;;;;5031602;28;20540;-63
2022/09/16 04:33:16;;;;;;;17.02;9.27;;;23.90;1.00;;;;;;5031992;28;20026;-62
2022/09/16 04:35:42;;;;;;;15.20;9.35;;;23.80;1.00;;;;;;5031625;28;20083;-62
2022/09/16 04:38:07;;;;;;;15.38;10.02;;;23.80;1.00;;;;;;5032090;28;20024;-62
2022/09/16 04:40:33;;;;;;;18.35;10.95;;;23.80;1.00;;;;;;5036425;28;20029;-62
2022/09/16 04:42:59;;;;;;;15.55;11.00;;;23.80;1.00;;;;;;5037946;28;20399;-62
2022/09/16 04:45:24;;;;;;;15.35;10.95;;;23.80;1.00;;;;;;5030156;28;20029;-62
2022/09/16 04:47:57;;;;;;;14.25;10.98;;;23.80;1.00;;;;;;5030794;28;20026;-62
2022/09/16 04:50:23;;;;;;;15.65;11.57;;;23.80;1.00;;;;;;5031210;28;20487;-62
2022/09/16 04:52:50;;;;;;;19.75;11.45;;;23.80;1.00;;;;;;5033718;28;20026;-62
2022/09/16 04:55:17;;;;;;;18.42;10.27;;;23.70;1.00;;;;;;5033698;28;20031;-62
2022/09/16 04:57:42;;;;;;;13.43;9.93;;;23.70;1.00;;;;;;5031911;28;20328;-62
2022/09/16 05:00:09;;;;;;;14.60;8.88;;;23.70;1.00;;;;;;5033375;28;20063;-62
2022/09/16 05:02:35;;;;;;;12.00;9.25;;;23.70;1.00;;;;;;5032546;28;20348;-63
2022/09/16 05:05:01;;;;;;;11.27;8.82;;;23.70;1.00;;;;;;5032238;28;20029;-62
2022/09/16 05:07:28;;;;;;;13.80;10.10;;;23.50;1.00;;;;;;5034467;28;20029;-63
2022/09/16 05:09:54;;;;;;;12.88;9.18;;;23.50;1.00;;;;;;5030864;28;20017;-63
2022/09/16 05:12:19;;;;;;;13.45;10.55;;;23.50;1.00;;;;;;5036264;28;20032;-63
2022/09/16 05:14:45;;;;;;;20.33;10.98;;;23.50;1.00;;;;;;5031760;28;20042;-63
2022/09/16 05:17:11;;;;;;;18.98;11.30;;;23.50;1.00;;;;;;5035558;28;20036;-63
2022/09/16 05:19:36;;;;;;;17.73;12.00;;;23.50;1.00;;;;;;5032400;28;20017;-63
2022/09/16 05:22:05;;;;;;;16.17;12.63;;;23.50;1.00;;;;;;5033921;28;20112;-63
2022/09/16 05:24:35;;;;;;;13.27;11.70;;;23.50;1.00;;;;;;5031724;28;20384;-62
2022/09/16 05:27:01;;;;;;;15.63;12.20;;;23.40;1.00;;;;;;5030985;28;20080;-63
2022/09/16 05:29:26;;;;;;;14.55;13.00;;;23.30;1.00;;;;;;5031903;28;20029;-63
2022/09/16 05:31:52;;;;;;;21.85;13.07;;;23.40;1.00;;;;;;5031156;28;20079;-63
2022/09/16 05:34:27;;;;;;;21.35;12.88;;;23.40;1.00;;;;;;5035318;28;20032;-63
2022/09/16 05:36:54;;;;;;;17.58;12.63;;;23.40;1.00;;;;;;5042817;28;20022;-63
2022/09/16 05:39:21;;;;;;;20.48;13.15;;;23.40;1.00;;;;;;5035461;28;20025;-62
2022/09/16 05:41:47;;;;;;;17.73;12.63;;;23.40;1.00;;;;;;5043033;28;20033;-63
2022/09/16 05:44:13;;;;;;;19.30;13.55;;;23.30;1.00;;;;;;5044059;28;20483;-64
2022/09/16 05:46:40;;;;;;;21.33;13.63;;;23.40;1.00;;;;;;5045428;28;20033;-63
2022/09/16 05:49:06;;;;;;;22.45;14.23;;;23.30;1.00;;;;;;5035354;28;20487;-63
2022/09/16 05:51:32;;;;;;;19.25;14.63;;;23.40;1.00;;;;;;5034399;28;20101;-63
2022/09/16 05:53:59;;;;;;;22.95;14.75;;;23.30;1.00;;;;;;5035032;28;20095;-63
2022/09/16 05:56:27;;;;;;;25.17;15.77;;;23.30;1.00;;;;;;5032541;28;20119;-63
2022/09/16 05:58:54;;;;;;;16.95;13.38;;;23.20;1.00;;;;;;5035058;28;20121;-63
2022/09/16 06:01:23;;;;;;;19.15;14.85;;;23.30;1.00;;;;;;5040701;28;20024;-63
2022/09/16 06:03:50;;;;;;;19.55;14.25;;;23.30;1.00;;;;;;5039524;28;20397;-63
2022/09/16 06:06:24;;;;;;;19.52;13.75;;;23.40;1.00;;;;;;5040314;28;20025;-63
2022/09/16 06:08:52;;;;;;;25.30;13.73;;;23.40;1.00;;;;;;5039354;28;20111;-63
2022/09/16 06:11:17;;;;;;;20.10;14.90;;;23.40;1.00;;;;;;5033068;28;20025;-63
2022/09/16 06:13:43;;;;;;;20.88;15.20;;;23.40;1.00;;;;;;5034684;28;20032;-63
2022/09/16 06:16:09;;;;;;;21.42;15.75;;;23.50;1.00;;;;;;5035051;28;20025;-63
2022/09/16 06:18:36;;;;;;;22.90;15.02;;;23.50;1.00;;;;;;5033469;28;20045;-63
2022/09/16 06:21:09;;;;;;;21.50;14.98;;;23.50;1.00;;;;;;5032015;28;20085;-63
2022/09/16 06:23:37;;;;;;;16.30;14.27;;;23.40;1.00;;;;;;5034827;28;20033;-63
2022/09/16 06:26:12;;;;;;;23.60;16.10;;;23.40;1.00;;;;;;5033990;28;20383;-63
2022/09/16 06:28:38;;;;;;;21.80;16.02;;;23.40;1.00;;;;;;5033918;28;20059;-63
2022/09/16 06:31:12;;;;;;;19.60;15.45;;;23.40;1.00;;;;;;5047030;28;20064;-63
2022/09/16 06:33:38;;;;;;;;;;;23.40;1.00;;;;;;5024383;28;20025;-63
2022/09/16 06:36:10;;;;;;;20.65;15.45;;;23.40;1.00;;;;;;5034542;28;19916;-63
2022/09/16 06:38:36;;;;;;;22.63;14.93;;;23.40;1.00;;;;;;5036558;28;20128;-63
2022/09/16 06:41:04;;;;;;;21.92;15.30;;;23.30;1.00;;;;;;5034461;28;20460;-63
2022/09/16 06:43:30;;;;;;;19.58;15.02;;;23.40;1.00;;;;;;5032907;28;20037;-63
2022/09/16 06:46:01;;;;;;;19.40;15.02;;;23.40;1.00;;;;;;5034054;28;20048;-63
2022/09/16 06:48:27;;;;;;;22.88;14.20;;;23.40;1.00;;;;;;5037651;28;20215;-62
2022/09/16 06:51:06;;;;;;;19.30;15.07;;;23.40;1.00;;;;;;5034376;28;20017;-63
2022/09/16 06:53:38;;;;;;;20.70;14.63;;;23.30;1.00;;;;;;5038916;28;20044;-63
2022/09/16 06:56:06;;;;;;;20.98;13.70;;;23.30;1.00;;;;;;5034361;28;20033;-63
2022/09/16 06:58:34;;;;;;;19.73;14.80;;;23.40;1.00;;;;;;5033134;28;20068;-63
2022/09/16 07:01:07;;;;;;;19.42;13.45;;;23.40;1.00;;;;;;5033974;28;20017;-63
2022/09/16 07:03:37;;;;;;;20.70;13.73;;;23.40;1.00;;;;;;5039128;28;20110;-63
2022/09/16 07:06:03;;;;;;;18.20;12.60;;;23.40;1.00;;;;;;5035631;28;20428;-63
2022/09/16 07:08:32;;;;;;;21.42;12.73;;;23.40;1.00;;;;;;5032955;28;20124;-62
2022/09/16 07:11:03;;;;;;;16.95;13.32;;;23.50;1.00;;;;;;5031914;28;20048;-63
2022/09/16 07:13:29;;;;;;;19.75;13.13;;;23.40;1.00;;;;;;5036574;28;20036;-63
2022/09/16 07:16:01;;;;;;;21.95;13.27;;;23.50;1.00;;;;;;5037272;28;20041;-64
2022/09/16 07:18:29;;;;;;;21.60;12.98;;;23.40;1.00;;;;;;5033979;28;20025;-63
2022/09/16 07:21:08;;;;;;;20.20;13.20;;;23.40;1.00;;;;;;5034974;28;20032;-63
2022/09/16 07:23:35;;;;;;;22.42;12.95;;;23.40;1.00;;;;;;5024580;28;20037;-63
2022/09/16 07:26:08;;;;;;;14.77;12.00;;;23.50;1.00;;;;;;5033626;28;20024;-63
2022/09/16 07:28:35;;;;;;;17.30;11.05;;;23.50;1.00;;;;;;5036002;28;20079;-63
2022/09/16 07:31:05;;;;;;;16.25;11.43;;;23.50;1.00;;;;;;5025187;28;20078;-63
2022/09/16 07:33:35;;;;;;;16.13;9.77;;;23.50;1.00;;;;;;5032601;28;20100;-63
2022/09/16 07:36:04;;;;;;;15.20;8.15;;;23.60;1.00;;;;;;5032311;28;20029;-63
2022/09/16 07:38:30;;;;;;;17.58;8.57;;;23.60;1.00;;;;;;5032452;28;20040;-63
2022/09/16 07:41:02;;;;;;;14.10;8.65;;;23.60;1.00;;;;;;5033222;28;20096;-63
2022/09/16 07:43:28;;;;;;;14.90;8.18;;;23.50;1.00;;;;;;5037351;28;20041;-63
2022/09/16 07:45:58;;;;;;;14.38;8.40;;;23.50;1.00;;;;;;5035973;28;20020;-63
2022/09/16 07:48:24;;;;;;;15.43;8.40;;;23.60;1.00;;;;;;5032208;28;20032;-63
2022/09/16 07:50:54;;;;;;;14.85;7.93;;;23.60;1.00;;;;;;5032758;28;20076;-63
2022/09/16 07:53:20;;;;;;;13.02;7.50;;;23.70;1.00;;;;;;5032174;28;20022;-63
2022/09/16 07:55:46;;;;;;;14.05;8.05;;;23.80;1.00;;;;;;5048505;28;20486;-63
2022/09/16 07:58:11;;;;;;;17.77;8.95;;;23.80;1.00;;;;;;5031398;28;20025;-63
2022/09/16 08:00:37;;;;;;;18.73;10.15;;;23.80;1.00;;;;;;5031977;28;20026;-63
2022/09/16 08:03:04;;;;;;;17.38;9.98;;;23.80;1.00;;;;;;5033917;28;20098;-63
2022/09/16 08:12:31;;;;;;;19.83;9.40;;;23.80;1.00;;;;;;5013491;28;20502;-63
2022/09/16 08:14:58;;;;;;;14.43;8.35;;;23.80;1.00;;;;;;5023038;28;20049;-63
2022/09/16 08:17:24;;;;;;;18.98;8.77;;;23.90;1.00;;;;;;5037655;28;20382;-63
2022/09/16 08:19:49;;;;;;;20.30;8.07;;;23.90;1.00;;;;;;5036126;28;20447;-63
2022/09/16 08:22:15;;;;;;;15.55;8.65;;;23.90;1.00;;;;;;5031748;28;20026;-63
2022/09/16 08:24:41;;;;;;;13.65;7.80;;;23.80;1.00;;;;;;5032401;28;20475;-63
2022/09/16 08:27:06;;;;;;;16.38;8.15;;;23.90;1.00;;;;;;5030363;28;20037;-63
2022/09/16 08:29:32;;;;;;;16.75;7.45;;;24.00;1.00;;;;;;5039176;28;20075;-63
2022/09/16 08:31:58;;;;;;;18.38;9.23;;;24.00;1.00;;;;;;5037037;28;20029;-63
2022/09/16 08:34:23;;;;;;;17.85;8.25;;;24.00;1.00;;;;;;5041005;28;20162;-63
2022/09/16 08:36:49;;;;;;;15.68;8.25;;;24.10;1.00;;;;;;5031710;28;20528;-63
2022/09/16 08:39:15;;;;;;;17.45;8.32;;;24.10;1.00;;;;;;5032233;28;20021;-63
2022/09/16 08:41:48;;;;;;;15.30;8.77;;;24.20;1.00;;;;;;5030304;28;20049;-63
2022/09/16 08:44:34;;;;;;;15.07;9.38;;;24.20;1.00;;;;;;5036750;28;20045;-63
2022/09/16 08:47:34;;;;;;;14.65;10.25;;;24.30;1.00;;;;;;5031539;28;20037;-63
2022/09/16 08:50:04;;;;;;;16.63;9.23;;;24.30;1.00;;;;;;5028452;28;20029;-63
2022/09/16 08:52:34;;;;;;;23.13;12.98;;;24.30;1.00;;;;;;5021070;28;20484;-63
2022/09/16 08:55:09;;;;;;;15.10;10.57;;;24.30;1.00;;;;;;5029704;28;20045;-63
2022/09/16 08:57:41;;;;;;;18.70;12.05;;;24.40;1.00;;;;;;5032775;28;20536;-63
2022/09/16 09:00:14;;;;;;;18.20;14.48;;;24.50;1.00;;;;;;5032051;28;20064;-63
2022/09/16 09:03:14;;;;;;;16.75;13.70;;;24.40;1.00;;;;;;5030949;28;20439;-63
2022/09/16 09:05:51;;;;;;;20.45;14.23;;;24.40;1.00;;;;;;5029433;28;20060;-63
2022/09/16 09:08:28;;;;;;;21.45;13.85;;;24.50;1.00;;;;;;5037309;28;20125;-63
2022/09/16 09:11:04;;;;;;;21.75;12.98;;;24.60;1.00;;;;;;5035741;28;20024;-63
2022/09/16 09:13:57;;;;;;;18.38;14.02;;;24.70;1.00;;;;;;5032006;28;20025;-63
2022/09/16 09:16:46;;;;;;;17.95;14.75;;;24.70;1.00;;;;;;5033903;28;20052;-63
2022/09/16 09:19:32;;;;;;;23.55;16.13;;;24.80;1.00;;;;;;5023149;28;20048;-63
2022/09/16 09:22:46;;;;;;;18.20;15.00;;;24.80;1.00;;;;;;5040722;28;20489;-63
2022/09/16 09:25:28;;;;;;;20.50;13.95;;;24.90;1.00;;;;;;5027301;28;20038;-63
2022/09/16 09:28:20;;;;;;;19.55;13.75;;;24.90;1.00;;;;;;5034955;28;20022;-63
2022/09/16 09:31:09;;;;;;;17.70;15.90;;;25.00;1.00;;;;;;5046944;28;20068;-63
2022/09/16 09:33:50;;;;;;;23.70;17.85;;;25.00;1.00;;;;;;5035293;28;20033;-63
2022/09/16 09:36:35;;;;;;;20.90;17.30;;;25.10;1.00;;;;;;5045438;28;20025;-63
2022/09/16 09:39:38;;;;;;;17.35;14.70;;;25.10;1.00;;;;;;5034723;28;20071;-63
2022/09/16 09:42:10;;;;;;;21.52;16.30;;;25.20;1.00;;;;;;5035451;28;20112;-64
2022/09/16 09:45:19;;;;;;;20.20;16.42;;;25.20;1.00;;;;;;5049665;28;20116;-64
2022/09/16 09:47:51;;;;;;;19.67;16.13;;;25.30;1.00;;;;;;5003489;28;20030;-63
2022/09/16 09:50:36;;;;;;;19.02;15.23;;;25.30;1.00;;;;;;5035100;28;20065;-64
2022/09/16 09:53:27;;;;;;;20.20;15.95;;;25.40;1.00;;;;;;5023949;28;20025;-63
2022/09/16 09:56:33;;;;;;;20.27;15.10;;;25.40;1.00;;;;;;5032080;28;20083;-64
2022/09/16 09:59:25;;;;;;;21.02;15.13;;;25.40;1.00;;;;;;5035649;28;20104;-64
2022/09/16 10:02:00;;;;;;;18.98;14.75;;;25.50;1.00;;;;;;5035246;28;20029;-63
2022/09/16 10:04:26;;;;;;;18.98;16.23;;;25.60;1.00;;;;;;5033948;28;20033;-63
2022/09/16 10:06:54;;;;;;;18.13;15.80;;;25.60;1.00;;;;;;5035130;28;20021;-63
2022/09/16 10:09:21;;;;;;;17.55;15.45;;;25.70;1.00;;;;;;5036946;28;20068;-63
2022/09/16 10:11:54;;;;;;;20.10;15.85;;;25.80;1.00;;;;;;5034878;28;20565;-62
2022/09/16 10:14:35;;;;;;;16.57;14.60;;;25.80;1.00;;;;;;5033776;28;20574;-63
2022/09/16 10:17:14;;;;;;;17.42;15.57;;;25.90;1.00;;;;;;5035190;28;20340;-63
2022/09/16 10:20:00;;;;;;;25.75;15.75;;;25.90;1.00;;;;;;5032941;28;20021;-63
2022/09/16 10:22:31;;;;;;;27.70;16.00;;;25.90;1.00;;;;;;5034706;28;20076;-63
2022/09/16 10:24:59;;;;;;;19.23;17.20;;;25.90;1.00;;;;;;5033938;28;20193;-64
2022/09/16 10:27:36;;;;;;;20.08;14.85;;;25.90;1.00;;;;;;5034696;28;20021;-63
2022/09/16 10:30:22;;;;;;;23.65;14.88;;;26.00;1.00;;;;;;5033709;28;20112;-63
2022/09/16 10:33:03;;;;;;;16.45;12.88;;;26.10;1.00;;;;;;5033448;28;20459;-63
2022/09/16 10:35:34;;;;;;;19.83;14.18;;;26.10;1.00;;;;;;5043706;28;20036;-63
2022/09/16 10:38:05;;;;;;;15.68;13.40;;;26.20;1.00;;;;;;5034555;28;20030;-63
2022/09/16 10:40:32;;;;;;;19.60;13.27;;;26.20;1.00;;;;;;5033639;28;20029;-63
2022/09/16 10:43:03;;;;;;;18.08;13.40;;;26.20;1.00;;;;;;5034167;28;20068;-63
2022/09/16 10:45:34;;;;;;;15.85;12.80;;;26.20;1.00;;;;;;5036114;28;20021;-64
2022/09/16 10:48:07;;;;;;;20.23;14.50;;;26.30;1.00;;;;;;5034270;28;20393;-63
2022/09/16 10:50:32;;;;;;;17.15;12.75;;;26.20;1.00;;;;;;5042166;28;20017;-63
2022/09/16 10:52:58;;;;;;;15.55;10.93;;;26.20;1.00;;;;;;5031939;28;20029;-63
2022/09/16 10:55:28;;;;;;;17.60;11.55;;;26.30;1.00;;;;;;5032230;28;20021;-64
2022/09/16 10:58:07;;;;;;;16.02;12.40;;;26.30;1.00;;;;;;5034192;28;20096;-63
2022/09/16 11:00:42;;;;;;;16.35;11.27;;;26.40;1.00;;;;;;5036866;28;20570;-63
2022/09/16 11:03:48;;;;;;;12.63;10.32;;;26.50;1.00;;;;;;5033909;28;20049;-62
2022/09/16 11:06:22;;;;;;;16.02;9.90;;;26.60;1.00;;;;;;5033292;28;20064;-63
2022/09/16 11:09:03;;;;;;;11.85;9.65;;;26.70;1.00;;;;;;5033997;28;20029;-62
2022/09/16 11:11:57;;;;;;;15.35;10.02;;;26.80;1.00;;;;;;5026413;28;20428;-62
2022/09/16 11:14:37;;;;;;;12.55;9.82;;;26.90;1.00;;;;;;5033093;28;20053;-62
2022/09/16 11:17:21;;;;;;;18.52;12.50;;;26.90;1.00;;;;;;5032359;28;20166;-62
2022/09/16 11:20:05;;;;;;;;;;;26.90;1.00;;;;;;5032131;28;20474;-62
2022/09/16 11:23:01;;;;;;;12.32;8.68;;;27.00;1.00;;;;;;5035155;28;19941;-62
2022/09/16 11:26:04;;;;;;;16.33;8.40;;;27.00;1.00;;;;;;5030129;28;20141;-63
2022/09/16 11:28:32;;;;;;;12.63;8.75;;;27.20;1.00;;;;;;5020749;28;20026;-63
2022/09/16 11:31:28;;;;;;;15.65;9.55;;;27.20;1.00;;;;;;5032114;28;20033;-62
2022/09/16 11:34:09;;;;;;;15.45;8.95;;;27.30;1.00;;;;;;5032520;28;20428;-61
2022/09/16 11:36:34;;;;;;;13.50;10.15;;;27.40;1.00;;;;;;5033331;28;20021;-63
2022/09/16 11:39:21;;;;;;;12.90;8.30;;;27.40;1.00;;;;;;5033148;28;20029;-62
2022/09/16 11:42:01;;;;;;;13.60;9.00;;;27.50;1.00;;;;;;5034202;28;20025;-63
2022/09/16 11:44:27;;;;;;;11.80;9.13;;;27.60;1.00;;;;;;5031097;28;20076;-63
2022/09/16 11:47:08;;;;;;;10.05;7.78;;;27.60;1.00;;;;;;5033033;28;20067;-62
2022/09/16 11:49:39;;;;;;;13.00;8.57;;;27.70;1.00;;;;;;5036690;28;20021;-62
2022/09/16 11:52:32;;;;;;;10.63;9.48;;;27.80;1.00;;;;;;5034070;28;20049;-63
2022/09/16 11:55:44;;;;;;;14.07;9.90;;;27.90;1.00;;;;;;5032075;28;20053;-63
2022/09/16 11:58:34;;;;;;;13.38;8.10;;;27.90;1.00;;;;;;5032806;28;20028;-63
2022/09/16 12:01:24;;;;;;;11.43;8.50;;;28.00;1.00;;;;;;5036054;28;20131;-63
2022/09/16 12:03:59;;;;;;;14.77;8.70;;;28.20;1.00;;;;;;5015161;28;20061;-63
2022/09/16 12:06:29;;;;;;;10.68;6.28;;;28.20;1.00;;;;;;5039818;28;20029;-63
2022/09/16 12:09:16;;;;;;;7.57;5.57;;;28.30;1.00;;;;;;5033292;28;20030;-62
2022/09/16 12:11:53;;;;;;;11.65;6.13;;;28.40;1.00;;;;;;5029851;28;20033;-63
2022/09/16 12:14:27;;;;;;;13.35;5.22;;;28.50;1.00;;;;;;5031462;28;20501;-64
2022/09/16 12:16:56;;;;;;;6.68;4.60;;;28.60;1.00;;;;;;5032957;28;20033;-63
2022/09/16 12:19:31;;;;;;;8.30;5.18;;;28.80;1.00;;;;;;5032796;28;20022;-62
2022/09/16 12:22:10;;;;;;;9.45;5.25;;;29.00;1.00;;;;;;5040881;28;20055;-62
2022/09/16 12:24:58;;;;;;;8.15;5.40;;;29.20;1.00;;;;;;5017999;28;20034;-62
2022/09/16 12:28:02;;;;;;;5.93;4.60;;;29.70;1.00;;;;;;5031105;28;20168;-62
2022/09/16 12:30:40;;;;;;;6.15;4.13;;;36.30;1.00;;;;;;5008598;28;20037;-61
2022/09/16 12:33:16;;;;;;;8.18;5.75;;;39.50;1.00;;;;;;5029085;28;20047;-62
2022/09/16 12:35:44;;;;;;;6.72;4.65;;;41.00;1.00;;;;;;5034465;28;20107;-63
2022/09/16 12:38:17;;;;;;;10.90;5.63;;;41.70;1.00;;;;;;5030954;28;20072;-63
2022/09/16 12:41:19;;;;;;;12.52;4.63;;;43.70;1.00;;;;;;5031973;28;20032;-63
2022/09/16 12:44:11;;;;;;;5.78;4.88;;;45.30;99.90;;;;;;5032011;28;20037;-62
2022/09/16 12:46:43;;;;;;;6.68;5.53;;;45.20;99.90;;;;;;5031309;28;20061;-63
2022/09/16 12:49:45;;;;;;;6.38;5.22;;;45.30;99.90;;;;;;5032270;28;20026;-63
2022/09/16 12:52:38;;;;;;;5.22;4.72;;;46.10;99.90;;;;;;5025064;28;20025;-62
2022/09/16 12:55:26;;;;;;;6.53;5.80;;;47.10;99.90;;;;;;5020136;28;20017;-64
2022/09/16 12:58:14;;;;;;;8.20;5.82;;;46.40;99.90;;;;;;5031472;28;20092;-64
2022/09/16 13:00:52;;;;;;;8.27;6.18;;;47.20;99.90;;;;;;5039932;28;20037;-62
2022/09/16 13:03:26;;;;;;;6.85;5.80;;;47.90;99.90;;;;;;5022812;28;20053;-62
2022/09/16 13:05:53;;;;;;;7.05;6.15;;;48.80;99.90;;;;;;5037536;28;20106;-62
2022/09/16 13:08:29;;;;;;;6.47;5.95;;;48.40;99.90;;;;;;5031950;28;20051;-62
2022/09/16 13:11:28;;;;;;;6.30;5.80;;;49.10;99.90;;;;;;5038101;28;20025;-64
2022/09/16 13:13:57;;;;;;;7.88;6.40;;;48.70;99.90;;;;;;5030281;28;20228;-64
2022/09/16 13:16:51;;;;;;;8.80;6.18;;;47.80;99.90;;;;;;5031122;28;20030;-61
2022/09/16 13:19:29;;;;;;;7.45;6.75;;;46.40;99.90;;;;;;5031748;28;20018;-62
2022/09/16 13:22:19;;;;;;;7.07;6.57;;;46.30;99.90;;;;;;5023286;28;20026;-63
2022/09/16 13:24:50;;;;;;;7.20;6.63;;;46.50;99.90;;;;;;5018532;28;20843;-63
2022/09/16 13:27:28;;;;;;;7.38;6.40;;;46.90;99.90;;;;;;5031697;28;20068;-64